地図

経路データ

SID SEASON NUMBER BASIN SUBBASIN NAME ISO_TIME NATURE LAT LON WMO_WIND WMO_PRES WMO_AGENCY TRACK_TYPE DIST2LAND LANDFALL IFLAG USA_AGENCY USA_ATCF_ID USA_LAT USA_LON USA_RECORD USA_STATUS USA_WIND USA_PRES USA_SSHS USA_R34_NE USA_R34_SE USA_R34_SW USA_R34_NW USA_R50_NE USA_R50_SE USA_R50_SW USA_R50_NW USA_R64_NE USA_R64_SE USA_R64_SW USA_R64_NW USA_POCI USA_ROCI USA_RMW USA_EYE TOKYO_LAT TOKYO_LON TOKYO_GRADE TOKYO_WIND TOKYO_PRES TOKYO_R50_DIR TOKYO_R50_LONG TOKYO_R50_SHORT TOKYO_R30_DIR TOKYO_R30_LONG TOKYO_R30_SHORT TOKYO_LAND CMA_LAT CMA_LON CMA_CAT CMA_WIND CMA_PRES HKO_LAT HKO_LON HKO_CAT HKO_WIND HKO_PRES NEWDELHI_LAT NEWDELHI_LON NEWDELHI_GRADE NEWDELHI_WIND NEWDELHI_PRES NEWDELHI_CI NEWDELHI_DP NEWDELHI_POCI REUNION_LAT REUNION_LON REUNION_TYPE REUNION_WIND REUNION_PRES REUNION_TNUM REUNION_CI REUNION_RMW REUNION_R34_NE REUNION_R34_SE REUNION_R34_SW REUNION_R34_NW REUNION_R50_NE REUNION_R50_SE REUNION_R50_SW REUNION_R50_NW REUNION_R64_NE REUNION_R64_SE REUNION_R64_SW REUNION_R64_NW BOM_LAT BOM_LON BOM_TYPE BOM_WIND BOM_PRES BOM_TNUM BOM_CI BOM_RMW BOM_R34_NE BOM_R34_SE BOM_R34_SW BOM_R34_NW BOM_R50_NE BOM_R50_SE BOM_R50_SW BOM_R50_NW BOM_R64_NE BOM_R64_SE BOM_R64_SW BOM_R64_NW BOM_ROCI BOM_POCI BOM_EYE BOM_POS_METHOD BOM_PRES_METHOD NADI_LAT NADI_LON NADI_CAT NADI_WIND NADI_PRES WELLINGTON_LAT WELLINGTON_LON WELLINGTON_WIND WELLINGTON_PRES DS824_LAT DS824_LON DS824_STAGE DS824_WIND DS824_PRES TD9636_LAT TD9636_LON TD9636_STAGE TD9636_WIND TD9636_PRES TD9635_LAT TD9635_LON TD9635_WIND TD9635_PRES TD9635_ROCI NEUMANN_LAT NEUMANN_LON NEUMANN_CLASS NEUMANN_WIND NEUMANN_PRES MLC_LAT MLC_LON MLC_CLASS MLC_WIND MLC_PRES USA_GUST BOM_GUST BOM_GUST_PER REUNION_GUST REUNION_GUST_PER USA_SEAHGT USA_SEARAD_NE USA_SEARAD_SE USA_SEARAD_SW USA_SEARAD_NW STORM_SPEED STORM_DIR
1909209N16117 1909 37 WP MM NOT_NAMED 1909-07-27 16:00:00 NR 16.2000 117.200 main 268 246 __________O___ -1 16.2000 117.200 7 6 92
1909209N16117 1909 37 WP MM NOT_NAMED 1909-07-27 18:00:00 NR 16.1932 117.394 main 246 214 __________P___ -1 16.1932 117.394 7 6 90
1909209N16117 1909 37 WP MM NOT_NAMED 1909-07-27 21:00:00 NR 16.1980 117.699 main 214 183 __________P___ -1 16.1980 117.699 7 6 86
1909209N16117 1909 37 WP MM NOT_NAMED 1909-07-28 00:00:00 NR 16.2415 118.043 main 183 142 __________P___ -1 16.2415 118.043 7 7 78
1909209N16117 1909 37 WP MM NOT_NAMED 1909-07-28 03:00:00 NR 16.3470 118.447 main 142 125 __________P___ -1 16.3470 118.447 7 8 74
1909209N16117 1909 37 WP MM NOT_NAMED 1909-07-28 04:00:00 NR 16.4000 118.600 main 125 98 __________O___ -1 16.4000 118.600 7 10 68
1909209N16117 1909 37 WP MM NOT_NAMED 1909-07-28 06:00:00 NR 16.5354 118.934 main 98 61 __________P___ -1 16.5354 118.934 7 11 65
1909209N16117 1909 37 WP MM NOT_NAMED 1909-07-28 09:00:00 NR 16.8013 119.485 main 64 33 __________P___ -1 16.8013 119.485 7 12 61
1909209N16117 1909 37 WP MM NOT_NAMED 1909-07-28 12:00:00 NR 17.1227 120.062 main 33 0 __________P___ -1 17.1227 120.062 7 13 58
1909209N16117 1909 37 WP MM NOT_NAMED 1909-07-28 15:00:00 NR 17.4778 120.623 main 0 0 __________P___ -1 17.4778 120.623 7 13 56
1909209N16117 1909 37 WP MM NOT_NAMED 1909-07-28 16:00:00 NR 17.6000 120.800 main 0 0 __________O___ -1 17.6000 120.800 4 12 53
1909209N16117 1909 37 WP MM NOT_NAMED 1909-07-28 18:00:00 NR 17.8350 121.117 main 0 0 __________P___ -1 17.8350 121.117 4 11 50
1909209N16117 1909 37 WP MM NOT_NAMED 1909-07-28 21:00:00 NR 18.2070 121.562 main 0 0 __________P___ -1 18.2070 121.562 4 11 47
1909209N16117 1909 37 WP MM NOT_NAMED 1909-07-29 00:00:00 NR 18.5910 121.977 main 24 24 __________P___ -1 18.5910 121.977 4 11 45
1909209N16117 1909 37 WP MM NOT_NAMED 1909-07-29 03:00:00 NR 18.9745 122.371 main 67 67 __________P___ -1 18.9745 122.371 4 11 44
1909209N16117 1909 37 WP MM NOT_NAMED 1909-07-29 04:00:00 NR 19.1000 122.500 main 81 81 __________O___ -1 19.1000 122.500 4 10 46
1909209N16117 1909 37 WP MM NOT_NAMED 1909-07-29 06:00:00 NR 19.3388 122.767 main 113 123 __________P___ -1 19.3388 122.767 4 10 46
1909209N16117 1909 37 WP MM NOT_NAMED 1909-07-29 09:00:00 NR 19.6909 123.155 main 173 173 __________P___ -1 19.6909 123.155 4 10 46
1909209N16117 1909 37 WP MM NOT_NAMED 1909-07-29 12:00:00 NR 20.0385 123.527 main 218 228 __________P___ -1 20.0385 123.527 4 10 45
1909209N16117 1909 37 WP MM NOT_NAMED 1909-07-29 15:00:00 NR 20.3845 123.884 main 279 279 __________P___ -1 20.3845 123.884 4 10 44
1909209N16117 1909 37 WP MM NOT_NAMED 1909-07-29 16:00:00 NR 20.5000 124.000 main 294 294 __________O___ -1 20.5000 124.000 4 9 44
1909209N16117 1909 37 WP MM NOT_NAMED 1909-07-29 18:00:00 NR 20.7013 124.209 main 325 325 __________P___ -1 20.7013 124.209 4 8 43
1909209N16117 1909 37 WP MM NOT_NAMED 1909-07-29 21:00:00 NR 21.0029 124.508 main 370 370 __________P___ -1 21.0029 124.508 4 9 42
1909209N16117 1909 37 WP MM NOT_NAMED 1909-07-30 00:00:00 NR 21.3374 124.818 main 403 398 __________P___ -1 21.3374 124.818 4 10 40
1909209N16117 1909 37 WP MM NOT_NAMED 1909-07-30 03:00:00 NR 21.7427 125.169 main 420 416 __________P___ -1 21.7427 125.169 4 11 38
1909209N16117 1909 37 WP MM NOT_NAMED 1909-07-30 04:00:00 NR 21.9000 125.300 main 422 418 __________O___ -1 21.9000 125.300 4 13 38
1909209N16117 1909 37 WP MM NOT_NAMED 1909-07-30 06:00:00 NR 22.2572 125.604 main 439 439 __________P___ -1 22.2572 125.604 4 15 38
1909209N16117 1909 37 WP MM NOT_NAMED 1909-07-30 09:00:00 NR 22.8685 126.111 main 463 463 __________P___ -1 22.8685 126.111 4 16 37
1909209N16117 1909 37 WP MM NOT_NAMED 1909-07-30 12:00:00 NR 23.5449 126.657 main 499 495 __________P___ -1 23.5449 126.657 4 17 36
1909209N16117 1909 37 WP MM NOT_NAMED 1909-07-30 15:00:00 NR 24.2586 127.215 main 530 530 __________P___ -1 24.2586 127.215 4 18 35
1909209N16117 1909 37 WP MM NOT_NAMED 1909-07-30 16:00:00 NR 24.5000 127.400 main 547 547 __________O___ -1 24.5000 127.400 4 18 34
1909209N16117 1909 37 WP MM NOT_NAMED 1909-07-30 18:00:00 NR 24.9833 127.762 main 584 583 __________P___ -1 24.9833 127.762 4 18 34
1909209N16117 1909 37 WP MM NOT_NAMED 1909-07-30 21:00:00 NR 25.7087 128.292 main 636 545 __________P___ -1 25.7087 128.292 4 17 33
1909209N16117 1909 37 WP MM NOT_NAMED 1909-07-31 00:00:00 NR 26.4341 128.811 main 545 445 __________P___ -1 26.4341 128.811 4 17 33
1909209N16117 1909 37 WP MM NOT_NAMED 1909-07-31 03:00:00 NR 27.1588 129.327 main 445 418 __________P___ -1 27.1588 129.327 4 17 32
1909209N16117 1909 37 WP MM NOT_NAMED 1909-07-31 04:00:00 NR 27.4000 129.500 main 418 __________O___ -1 27.4000 129.500 4 17 32

デジタル台風データ・検索

IBTrACS Databaseについて

本データベースは、米国NOAAが公開する1842年以降の世界の熱帯低気圧のベストトラックデータアーカイブInternational Best Track Archive for Climate Stewardship (IBTrACS)を、ウェブで閲覧しやすい形式に変換したものです。

最終更新日:2021-11-26